首页
METAR-TAF:

METAR-TAF

机场 :

大马士革国际机场

大马士革, 叙利亚

纬度: 33-25N, 经度: 036-31E, 海拔: 608米

当前天气观测

该预报发布于57分钟前的01:00 UTC
风速4节,风向东转东北
温度 2°C
湿度 87%
气压 1018 hPa
能见度10公里或以上
1500米以下无云,无积雨云

METAR: OSDI 230100Z 06004KT CAVOK 02/00 Q1018

时间: 03:57 (01:57 UTC)

预报

该预报发布于3小时和57分钟前的22:00 UTC
预报有效从23日的 00点(UTC)到 24日的 06点(UTC)
风速3节,风向多变
能見度: 7000
短暂存在
从 23日的 10点(UTC)到 23日的 20点(UTC)
风速10节,风向
能见度10公里或以上
少量云层高于3000英尺

TAF: OSDI 222200Z 2300/2406 VRB03KT 7000 TEMPO 2310/2320 08010KT 9999 FEW030

超过4000个机场的气象观测和天气预报(METAR&TAF报告)。

可查询的气象台以黄色和红色小点在地图上表示。

将鼠标移到小点上方,可查看气象台名称。

然后点击查看天气观测和预报。

如需切换地图:点击带黑十字的绿色按钮放大地图;点击带横线的绿色按钮缩小地图;或者点击绿色箭头查看邻近地区的地图。


METAR-TAF: